Time;durP1;ratioP1;P1;durP2;ratioP2;P2;SDS_P1;SDS_P2;PMS_P1;PMS_P2;Temp;Humidity;BMP_temperature;BMP_pressure;BME280_temperature;BME280_humidity;BME280_pressure;Samples;Min_cycle;Max_cycle;Signal;HPM_P1;HPM_P2
2023/05/02 00:00:21;;;;;;;7.83;5.87;;;;;;;;;;760468;182;916183;-65
2023/05/02 00:02:47;;;;;;;7.63;5.33;;;;;;;;;;762182;183;918209;-62
2023/05/02 00:05:13;;;;;;;8.37;6.33;;;;;;;;;;759267;181;858026;-66
2023/05/02 00:07:39;;;;;;;7.73;5.63;;;;;;;;;;761636;181;918476;-61
2023/05/02 00:10:05;;;;;;;7.87;5.50;;;;;;;;;;766776;182;920151;-64
2023/05/02 00:12:31;;;;;;;6.77;5.10;;;;;;;;;;761173;182;919518;-64
2023/05/02 00:14:57;;;;;;;7.10;5.10;;;;;;;;;;761761;182;919502;-64
2023/05/02 00:17:23;;;;;;;7.13;4.90;;;;;;;;;;767727;182;816340;-62
2023/05/02 00:19:48;;;;;;;7.57;5.07;;;;;;;;;;761491;182;915382;-66
2023/05/02 00:22:14;;;;;;;6.80;4.80;;;;;;;;;;764903;182;860388;-62
2023/05/02 00:24:40;;;;;;;6.97;5.27;;;;;;;;;;767532;182;816754;-62
2023/05/02 00:27:06;;;;;;;8.43;4.63;;;;;;;;;;761198;182;918629;-61
2023/05/02 00:29:32;;;;;;;7.60;5.50;;;;;;;;;;762276;180;1108517;-62
2023/05/02 00:31:58;;;;;;;7.77;5.00;;;;;;;;;;753548;182;902791;-62
2023/05/02 00:34:23;;;;;;;7.77;5.60;;;;;;;;;;767498;182;892533;-65
2023/05/02 00:36:49;;;;;;;5.20;4.30;;;;;;;;;;764380;180;949913;-65
2023/05/02 00:39:15;;;;;;;7.40;4.50;;;;;;;;;;764669;182;774741;-65
2023/05/02 00:41:41;;;;;;;8.97;4.93;;;;;;;;;;766810;181;916244;-62
2023/05/02 00:44:07;;;;;;;9.17;5.20;;;;;;;;;;760689;182;916147;-61
2023/05/02 00:46:33;;;;;;;6.03;4.30;;;;;;;;;;760096;182;918769;-62
2023/05/02 00:48:59;;;;;;;7.83;3.60;;;;;;;;;;766362;182;940219;-62
2023/05/02 00:51:25;;;;;;;12.90;4.57;;;;;;;;;;761509;181;919632;-64
2023/05/02 00:53:51;;;;;;;7.30;4.83;;;;;;;;;;762993;182;819224;-65
2023/05/02 00:56:16;;;;;;;7.40;5.50;;;;;;;;;;760563;182;915415;-62
2023/05/02 00:58:42;;;;;;;6.90;5.20;;;;;;;;;;769350;181;919149;-64
2023/05/02 01:01:25;;;;;;;5.70;4.77;;;;;;;;;;766290;182;917824;-65
2023/05/02 01:03:50;;;;;;;5.53;4.53;;;;;;;;;;761252;182;919079;-66
2023/05/02 01:06:22;;;;;;;12.43;4.77;;;;;;;;;;761403;182;810339;-63
2023/05/02 01:08:50;;;;;;;6.70;4.83;;;;;;;;;;766144;182;862395;-63
2023/05/02 01:11:16;;;;;;;5.87;4.40;;;;;;;;;;761669;182;940468;-65
2023/05/02 01:13:41;;;;;;;7.70;4.63;;;;;;;;;;750745;184;916466;-65
2023/05/02 01:16:07;;;;;;;5.83;4.10;;;;;;;;;;759440;182;919512;-63
2023/05/02 01:18:33;;;;;;;9.57;4.72;;;;;;;;;;767781;182;920259;-63
2023/05/02 01:21:00;;;;;;;6.30;4.33;;;;;;;;;;762403;182;919147;-63
2023/05/02 01:23:28;;;;;;;5.70;4.07;;;;;;;;;;764190;181;917427;-63
2023/05/02 01:25:55;;;;;;;5.70;4.20;;;;;;;;;;764721;182;918816;-63
2023/05/02 01:28:27;;;;;;;7.62;5.32;;;;;;;;;;760213;182;923437;-63
2023/05/02 01:30:53;;;;;;;5.50;4.20;;;;;;;;;;761274;182;923051;-63
2023/05/02 01:33:18;;;;;;;7.40;4.40;;;;;;;;;;764189;182;818364;-63
2023/05/02 01:35:44;;;;;;;4.90;3.60;;;;;;;;;;766241;182;920112;-66
2023/05/02 01:38:10;;;;;;;6.55;3.90;;;;;;;;;;759726;181;918431;-65
2023/05/02 01:40:36;;;;;;;5.03;3.97;;;;;;;;;;760694;180;921062;-63
2023/05/02 01:43:04;;;;;;;5.63;3.50;;;;;;;;;;767024;182;918127;-63
2023/05/02 01:45:28;;;;;;;5.33;3.53;;;;;;;;;;764613;182;919090;-63
2023/05/02 01:47:53;;;;;;;5.77;3.90;;;;;;;;;;752105;183;1021512;-63
2023/05/02 01:50:19;;;;;;;6.18;3.25;;;;;;;;;;764861;182;911796;-65
2023/05/02 01:52:45;;;;;;;5.87;3.00;;;;;;;;;;752589;183;913159;-67
2023/05/02 01:55:11;;;;;;;5.57;3.90;;;;;;;;;;768253;182;923156;-67
2023/05/02 01:57:37;;;;;;;6.63;3.80;;;;;;;;;;761485;182;919478;-62
2023/05/02 02:00:03;;;;;;;4.87;3.40;;;;;;;;;;768013;182;919830;-63
2023/05/02 02:02:29;;;;;;;7.57;3.37;;;;;;;;;;757572;182;918914;-65
2023/05/02 02:04:55;;;;;;;9.52;3.78;;;;;;;;;;759236;182;918800;-63
2023/05/02 02:07:21;;;;;;;5.70;3.20;;;;;;;;;;765157;182;919489;-62
2023/05/02 02:09:47;;;;;;;11.03;3.70;;;;;;;;;;762901;182;817386;-65
2023/05/02 02:12:15;;;;;;;5.60;4.00;;;;;;;;;;761992;182;916674;-65
2023/05/02 02:14:41;;;;;;;5.10;3.43;;;;;;;;;;757886;182;920049;-65
2023/05/02 02:17:12;;;;;;;8.83;3.63;;;;;;;;;;765211;182;816213;-63
2023/05/02 02:19:38;;;;;;;7.50;4.07;;;;;;;;;;764803;182;919066;-66
2023/05/02 02:22:03;;;;;;;5.13;3.87;;;;;;;;;;757605;182;919068;-65
2023/05/02 02:24:29;;;;;;;6.00;4.07;;;;;;;;;;758096;183;919506;-62
2023/05/02 02:26:55;;;;;;;6.40;3.63;;;;;;;;;;757723;181;918752;-63
2023/05/02 02:29:21;;;;;;;5.10;4.00;;;;;;;;;;748205;186;919814;-62
2023/05/02 02:31:47;;;;;;;4.97;3.50;;;;;;;;;;762943;182;917069;-62
2023/05/02 02:34:13;;;;;;;6.00;3.50;;;;;;;;;;764377;182;919518;-63
2023/05/02 02:36:38;;;;;;;7.50;3.50;;;;;;;;;;767226;182;917793;-63
2023/05/02 02:39:08;;;;;;;5.28;3.87;;;;;;;;;;756653;183;884744;-63
2023/05/02 02:41:36;;;;;;;8.43;3.57;;;;;;;;;;767914;182;919061;-65
2023/05/02 02:44:04;;;;;;;7.13;3.90;;;;;;;;;;764326;182;918713;-63
2023/05/02 02:46:30;;;;;;;8.23;4.20;;;;;;;;;;759701;182;919884;-65
2023/05/02 02:48:58;;;;;;;6.87;3.62;;;;;;;;;;769392;182;802616;-65
2023/05/02 02:51:28;;;;;;;5.83;3.63;;;;;;;;;;763394;181;919959;-65
2023/05/02 02:53:53;;;;;;;5.47;3.90;;;;;;;;;;764103;181;919796;-63
2023/05/02 02:56:19;;;;;;;4.70;3.37;;;;;;;;;;765051;181;910285;-62
2023/05/02 02:58:45;;;;;;;5.90;3.70;;;;;;;;;;763909;181;920877;-63
2023/05/02 03:01:11;;;;;;;9.50;3.60;;;;;;;;;;760917;181;915152;-66
2023/05/02 03:03:37;;;;;;;5.13;3.70;;;;;;;;;;751338;183;823661;-63
2023/05/02 03:06:03;;;;;;;6.10;3.77;;;;;;;;;;763733;182;909783;-65
2023/05/02 03:08:28;;;;;;;4.20;3.10;;;;;;;;;;757486;182;826151;-62
2023/05/02 03:10:54;;;;;;;5.70;4.05;;;;;;;;;;764125;181;910723;-65
2023/05/02 03:13:20;;;;;;;6.70;3.40;;;;;;;;;;763276;181;922047;-63
2023/05/02 03:16:06;;;;;;;11.10;3.83;;;;;;;;;;768336;182;919432;-65
2023/05/02 03:18:32;;;;;;;6.33;4.10;;;;;;;;;;772327;181;918218;-65
2023/05/02 03:20:57;;;;;;;11.57;4.13;;;;;;;;;;757929;182;913957;-61
2023/05/02 03:23:23;;;;;;;7.37;3.63;;;;;;;;;;762401;182;918743;-63
2023/05/02 03:25:49;;;;;;;8.07;3.60;;;;;;;;;;764737;182;921143;-64
2023/05/02 03:28:15;;;;;;;6.43;3.87;;;;;;;;;;755838;182;1024127;-64
2023/05/02 03:30:41;;;;;;;4.43;3.23;;;;;;;;;;762695;181;1019468;-63
2023/05/02 03:33:07;;;;;;;6.80;3.70;;;;;;;;;;762446;182;920418;-61
2023/05/02 03:35:32;;;;;;;5.40;3.53;;;;;;;;;;763242;183;916677;-64
2023/05/02 03:37:58;;;;;;;4.43;2.90;;;;;;;;;;761695;182;919518;-61
2023/05/02 03:40:24;;;;;;;5.63;3.30;;;;;;;;;;758703;182;921817;-61
2023/05/02 03:42:50;;;;;;;5.17;2.70;;;;;;;;;;769202;182;818764;-61
2023/05/02 03:45:16;;;;;;;5.13;3.33;;;;;;;;;;764399;182;920115;-62
2023/05/02 03:47:42;;;;;;;7.30;3.73;;;;;;;;;;764408;182;919301;-63
2023/05/02 03:50:08;;;;;;;6.70;3.20;;;;;;;;;;768253;181;915539;-64
2023/05/02 03:52:34;;;;;;;5.10;3.13;;;;;;;;;;763021;182;821029;-61
2023/05/02 03:54:59;;;;;;;9.13;3.40;;;;;;;;;;765375;182;919295;-64
2023/05/02 03:57:25;;;;;;;5.70;3.97;;;;;;;;;;768756;182;918152;-64
2023/05/02 03:59:51;;;;;;;5.43;3.50;;;;;;;;;;764799;181;871970;-65
2023/05/02 04:02:17;;;;;;;3.73;2.80;;;;;;;;;;759254;181;718569;-61
2023/05/02 04:04:43;;;;;;;3.60;2.37;;;;;;;;;;764780;180;918781;-63
2023/05/02 04:07:14;;;;;;;6.00;3.43;;;;;;;;;;774670;181;816527;-67
2023/05/02 04:09:34;;;;;;;5.67;3.20;;;;;;;;;;767130;181;625356;-64
2023/05/02 04:12:00;;;;;;;6.50;2.40;;;;;;;;;;758188;182;815965;-61
2023/05/02 04:14:26;;;;;;;5.00;3.40;;;;;;;;;;765110;182;639211;-65
2023/05/02 04:16:52;;;;;;;5.40;3.10;;;;;;;;;;766997;181;638512;-62
2023/05/02 04:19:18;;;;;;;5.23;3.47;;;;;;;;;;768267;182;916930;-61
2023/05/02 04:21:44;;;;;;;4.33;3.27;;;;;;;;;;767944;180;817205;-64
2023/05/02 04:24:09;;;;;;;6.90;3.20;;;;;;;;;;762581;182;815094;-63
2023/05/02 04:26:35;;;;;;;4.53;3.07;;;;;;;;;;763938;182;912339;-64
2023/05/02 04:29:01;;;;;;;6.07;2.80;;;;;;;;;;761884;181;1018577;-63
2023/05/02 04:31:27;;;;;;;5.33;3.50;;;;;;;;;;768991;182;710757;-61
2023/05/02 04:33:53;;;;;;;8.03;3.20;;;;;;;;;;762588;182;919764;-61
2023/05/02 04:36:19;;;;;;;4.87;2.83;;;;;;;;;;763806;182;917567;-63
2023/05/02 04:38:45;;;;;;;6.60;3.40;;;;;;;;;;766234;182;817858;-64
2023/05/02 04:41:10;;;;;;;3.87;3.00;;;;;;;;;;760252;182;920904;-61
2023/05/02 04:43:36;;;;;;;6.40;3.57;;;;;;;;;;764031;182;921659;-62
2023/05/02 04:46:02;;;;;;;6.37;3.70;;;;;;;;;;763748;183;821500;-62
2023/05/02 04:48:28;;;;;;;4.63;2.63;;;;;;;;;;766228;181;918730;-61
2023/05/02 04:50:54;;;;;;;4.10;2.90;;;;;;;;;;764233;182;819707;-62
2023/05/02 04:53:20;;;;;;;4.43;3.33;;;;;;;;;;765199;182;817021;-62
2023/05/02 04:55:46;;;;;;;5.77;2.90;;;;;;;;;;768479;182;716099;-64
2023/05/02 04:58:12;;;;;;;3.77;2.90;;;;;;;;;;767923;181;648705;-64
2023/05/02 05:00:38;;;;;;;3.77;2.73;;;;;;;;;;753473;182;919145;-62
2023/05/02 05:03:05;;;;;;;5.97;3.00;;;;;;;;;;753995;183;882652;-63
2023/05/02 05:05:30;;;;;;;7.13;2.80;;;;;;;;;;756193;183;949622;-61
2023/05/02 05:07:55;;;;;;;3.40;2.70;;;;;;;;;;758821;182;1021947;-65
2023/05/02 05:10:21;;;;;;;4.47;3.50;;;;;;;;;;766196;182;913672;-63
2023/05/02 05:12:48;;;;;;;4.90;3.40;;;;;;;;;;754808;181;914033;-64
2023/05/02 05:15:13;;;;;;;7.40;2.93;;;;;;;;;;759057;180;914690;-64
2023/05/02 05:17:39;;;;;;;5.90;3.10;;;;;;;;;;765505;181;909599;-64
2023/05/02 05:20:05;;;;;;;4.30;2.77;;;;;;;;;;763653;180;918234;-62
2023/05/02 05:22:31;;;;;;;4.73;2.70;;;;;;;;;;761585;181;917054;-61
2023/05/02 05:24:57;;;;;;;5.67;2.57;;;;;;;;;;763020;182;817429;-63
2023/05/02 05:27:23;;;;;;;3.17;2.37;;;;;;;;;;766380;182;918598;-63
2023/05/02 05:29:48;;;;;;;4.43;2.60;;;;;;;;;;765119;181;920111;-64
2023/05/02 05:32:14;;;;;;;5.23;2.23;;;;;;;;;;758323;181;911238;-62
2023/05/02 05:34:40;;;;;;;9.83;2.70;;;;;;;;;;767649;182;920988;-61
2023/05/02 05:37:06;;;;;;;6.63;2.53;;;;;;;;;;761706;182;923826;-63
2023/05/02 05:39:32;;;;;;;3.43;2.40;;;;;;;;;;764586;182;918942;-63
2023/05/02 05:41:59;;;;;;;5.47;2.53;;;;;;;;;;769358;182;919073;-62
2023/05/02 05:44:24;;;;;;;5.40;2.20;;;;;;;;;;765855;182;919152;-61
2023/05/02 05:46:49;;;;;;;4.80;2.20;;;;;;;;;;758039;182;919404;-64
2023/05/02 05:49:16;;;;;;;3.70;2.67;;;;;;;;;;767675;182;920749;-64
2023/05/02 05:51:42;;;;;;;4.90;2.30;;;;;;;;;;752631;183;902306;-64
2023/05/02 05:54:08;;;;;;;5.17;2.40;;;;;;;;;;756614;182;915084;-62
2023/05/02 05:56:34;;;;;;;4.03;2.00;;;;;;;;;;764852;182;826509;-62
2023/05/02 05:58:59;;;;;;;3.07;2.00;;;;;;;;;;762220;182;817880;-62
2023/05/02 06:01:25;;;;;;;8.27;2.70;;;;;;;;;;751045;184;913166;-64
2023/05/02 06:03:51;;;;;;;4.53;2.53;;;;;;;;;;759593;182;920008;-65
2023/05/02 06:06:17;;;;;;;7.63;3.07;;;;;;;;;;765462;182;916862;-63
2023/05/02 06:08:43;;;;;;;6.40;3.07;;;;;;;;;;761658;182;920352;-63
2023/05/02 06:11:10;;;;;;;5.80;2.63;;;;;;;;;;761348;182;917591;-63
2023/05/02 06:13:35;;;;;;;4.77;3.07;;;;;;;;;;764922;182;907826;-63
2023/05/02 06:16:01;;;;;;;5.03;2.47;;;;;;;;;;753723;183;912765;-62
2023/05/02 06:18:26;;;;;;;4.40;2.73;;;;;;;;;;750546;182;920618;-64
2023/05/02 06:20:52;;;;;;;5.10;3.13;;;;;;;;;;765097;181;817201;-64
2023/05/02 06:23:18;;;;;;;3.80;2.17;;;;;;;;;;767127;182;919103;-63
2023/05/02 06:25:44;;;;;;;5.87;3.00;;;;;;;;;;766350;182;926744;-62
2023/05/02 06:28:10;;;;;;;6.33;2.77;;;;;;;;;;762974;181;913951;-64
2023/05/02 06:30:35;;;;;;;5.30;2.90;;;;;;;;;;758767;184;909534;-62
2023/05/02 06:33:04;;;;;;;5.73;4.03;;;;;;;;;;761409;182;917457;-64
2023/05/02 06:35:30;;;;;;;7.13;3.50;;;;;;;;;;757402;182;920276;-64
2023/05/02 06:37:56;;;;;;;4.50;3.10;;;;;;;;;;761468;182;917147;-64
2023/05/02 06:40:22;;;;;;;6.23;3.93;;;;;;;;;;761309;181;919095;-64
2023/05/02 06:42:47;;;;;;;6.33;3.30;;;;;;;;;;751804;182;926454;-63
2023/05/02 06:45:13;;;;;;;6.10;3.97;;;;;;;;;;761965;181;936362;-63
2023/05/02 06:47:39;;;;;;;4.40;3.73;;;;;;;;;;774126;182;914693;-64
2023/05/02 06:50:05;;;;;;;6.30;3.87;;;;;;;;;;765032;181;921605;-63
2023/05/02 06:52:31;;;;;;;8.20;3.83;;;;;;;;;;761612;182;920843;-64
2023/05/02 06:54:57;;;;;;;6.00;3.90;;;;;;;;;;768474;182;885030;-64
2023/05/02 06:57:23;;;;;;;7.43;4.07;;;;;;;;;;759810;182;919572;-63
2023/05/02 06:59:49;;;;;;;5.27;3.67;;;;;;;;;;762250;182;943443;-62
2023/05/02 07:02:15;;;;;;;7.77;4.87;;;;;;;;;;768462;182;919678;-61
2023/05/02 07:04:40;;;;;;;6.90;4.60;;;;;;;;;;756440;182;922412;-63
2023/05/02 07:07:06;;;;;;;6.57;4.50;;;;;;;;;;751740;184;918838;-62
2023/05/02 07:09:32;;;;;;;7.47;5.37;;;;;;;;;;759300;182;927621;-62
2023/05/02 07:11:58;;;;;;;7.30;5.53;;;;;;;;;;768430;181;814534;-62
2023/05/02 07:14:24;;;;;;;6.83;5.23;;;;;;;;;;770478;181;922302;-63
2023/05/02 07:16:50;;;;;;;7.30;5.57;;;;;;;;;;764420;182;944434;-62
2023/05/02 07:19:16;;;;;;;7.23;5.83;;;;;;;;;;763183;182;923525;-63
2023/05/02 07:21:41;;;;;;;9.70;5.67;;;;;;;;;;753357;182;926981;-63
2023/05/02 07:24:07;;;;;;;10.57;5.67;;;;;;;;;;748097;184;916634;-63
2023/05/02 07:26:33;;;;;;;8.47;6.53;;;;;;;;;;766941;182;915578;-62
2023/05/02 07:28:59;;;;;;;7.23;5.30;;;;;;;;;;762606;182;919109;-62
2023/05/02 07:31:25;;;;;;;7.15;5.60;;;;;;;;;;762482;182;918678;-63
2023/05/02 07:33:51;;;;;;;6.80;5.83;;;;;;;;;;770172;181;918239;-62
2023/05/02 07:36:17;;;;;;;11.10;6.10;;;;;;;;;;762634;182;921325;-61
2023/05/02 07:38:42;;;;;;;7.77;5.40;;;;;;;;;;763834;181;919257;-62
2023/05/02 07:41:08;;;;;;;6.90;4.87;;;;;;;;;;764620;182;920421;-62
2023/05/02 07:43:34;;;;;;;6.97;5.47;;;;;;;;;;770224;181;816520;-63
2023/05/02 07:46:00;;;;;;;7.00;5.23;;;;;;;;;;763310;181;913385;-63
2023/05/02 07:48:26;;;;;;;11.20;6.00;;;;;;;;;;764190;182;913270;-63
2023/05/02 07:50:52;;;;;;;6.78;5.47;;;;;;;;;;771748;181;917446;-64
2023/05/02 07:53:17;;;;;;;7.20;5.73;;;;;;;;;;762617;182;920455;-63
2023/05/02 07:55:43;;;;;;;7.50;5.70;;;;;;;;;;763700;181;816648;-63
2023/05/02 07:58:10;;;;;;;8.13;6.07;;;;;;;;;;768296;182;918764;-62
2023/05/02 08:00:35;;;;;;;6.87;5.40;;;;;;;;;;758588;182;917654;-64
2023/05/02 08:03:01;;;;;;;7.22;6.03;;;;;;;;;;754591;182;925167;-62
2023/05/02 08:05:28;;;;;;;7.05;6.30;;;;;;;;;;760681;182;919030;-62
2023/05/02 08:07:53;;;;;;;8.90;7.00;;;;;;;;;;762973;184;890173;-62
2023/05/02 08:10:19;;;;;;;8.30;7.40;;;;;;;;;;762055;182;919556;-63
2023/05/02 08:12:45;;;;;;;9.10;6.83;;;;;;;;;;764002;180;919208;-62
2023/05/02 08:15:12;;;;;;;9.83;8.37;;;;;;;;;;771263;182;918241;-62
2023/05/02 08:17:37;;;;;;;7.87;7.07;;;;;;;;;;750461;186;918171;-62
2023/05/02 08:20:03;;;;;;;8.40;7.30;;;;;;;;;;749386;182;919952;-62
2023/05/02 08:22:29;;;;;;;8.03;7.10;;;;;;;;;;758583;182;925541;-62
2023/05/02 08:24:55;;;;;;;9.90;7.00;;;;;;;;;;764841;182;915431;-64
2023/05/02 08:27:20;;;;;;;10.10;7.00;;;;;;;;;;766219;181;920246;-63
2023/05/02 08:29:46;;;;;;;8.83;7.17;;;;;;;;;;770680;182;919206;-60
2023/05/02 08:32:12;;;;;;;9.47;7.03;;;;;;;;;;763180;182;924032;-63
2023/05/02 08:34:38;;;;;;;8.07;7.03;;;;;;;;;;766434;182;889274;-62
2023/05/02 08:37:07;;;;;;;8.97;8.00;;;;;;;;;;762389;181;918774;-62
2023/05/02 08:39:32;;;;;;;13.73;8.87;;;;;;;;;;763727;182;900798;-63
2023/05/02 08:41:58;;;;;;;9.57;7.87;;;;;;;;;;763858;182;912371;-63
2023/05/02 08:44:24;;;;;;;13.80;8.87;;;;;;;;;;763925;182;915502;-63
2023/05/02 08:46:50;;;;;;;11.93;8.37;;;;;;;;;;762886;182;817894;-63
2023/05/02 08:49:16;;;;;;;10.13;8.50;;;;;;;;;;758616;182;916347;-62
2023/05/02 08:51:42;;;;;;;8.80;7.87;;;;;;;;;;762806;182;918183;-62
2023/05/02 08:54:08;;;;;;;11.80;8.13;;;;;;;;;;767099;182;919466;-65
2023/05/02 08:56:33;;;;;;;10.80;8.20;;;;;;;;;;763863;182;921965;-63
2023/05/02 08:58:59;;;;;;;10.47;7.40;;;;;;;;;;758790;182;920950;-63
2023/05/02 09:01:25;;;;;;;10.77;9.67;;;;;;;;;;765381;182;919359;-63
2023/05/02 09:03:51;;;;;;;14.50;7.57;;;;;;;;;;763845;182;918572;-63
2023/05/02 09:06:17;;;;;;;11.77;8.33;;;;;;;;;;761930;182;816694;-63
2023/05/02 09:08:43;;;;;;;12.00;9.00;;;;;;;;;;758619;180;914678;-63
2023/05/02 09:11:09;;;;;;;13.43;8.97;;;;;;;;;;762279;182;914922;-63
2023/05/02 09:13:35;;;;;;;14.73;8.40;;;;;;;;;;758121;182;915276;-63
2023/05/02 09:16:01;;;;;;;9.77;8.40;;;;;;;;;;755669;183;915719;-63
2023/05/02 09:18:26;;;;;;;11.57;9.20;;;;;;;;;;763420;182;815962;-62
2023/05/02 09:20:52;;;;;;;9.53;8.00;;;;;;;;;;762680;182;918821;-62
2023/05/02 09:23:18;;;;;;;8.17;6.73;;;;;;;;;;764496;182;918929;-63
2023/05/02 09:25:44;;;;;;;9.20;7.73;;;;;;;;;;765663;182;918431;-63
2023/05/02 09:28:09;;;;;;;10.33;9.30;;;;;;;;;;762144;183;919430;-63
2023/05/02 09:30:35;;;;;;;10.23;8.60;;;;;;;;;;762393;182;922046;-63
2023/05/02 09:33:01;;;;;;;14.23;8.50;;;;;;;;;;759332;182;919410;-64
2023/05/02 09:35:27;;;;;;;9.50;8.57;;;;;;;;;;763254;182;919354;-63
2023/05/02 09:37:53;;;;;;;10.87;8.33;;;;;;;;;;765570;181;920586;-63
2023/05/02 09:40:19;;;;;;;18.33;7.63;;;;;;;;;;759154;182;918319;-65
2023/05/02 09:42:45;;;;;;;12.57;8.20;;;;;;;;;;765329;182;913293;-63
2023/05/02 09:45:10;;;;;;;7.53;6.70;;;;;;;;;;765112;182;919470;-63
2023/05/02 09:47:36;;;;;;;10.00;7.90;;;;;;;;;;752968;183;918460;-63
2023/05/02 09:50:05;;;;;;;30.23;10.77;;;;;;;;;;760485;182;915168;-63
2023/05/02 09:52:29;;;;;;;14.03;8.13;;;;;;;;;;758937;182;916544;-63
2023/05/02 09:54:55;;;;;;;26.57;8.53;;;;;;;;;;766338;182;919517;-63
2023/05/02 09:57:22;;;;;;;9.53;7.00;;;;;;;;;;763565;181;918605;-63
2023/05/02 09:59:52;;;;;;;9.80;7.03;;;;;;;;;;771993;181;918514;-64
2023/05/02 10:02:18;;;;;;;11.30;6.93;;;;;;;;;;765338;181;918720;-64
2023/05/02 10:04:44;;;;;;;15.13;8.05;;;;;;;;;;762364;181;925620;-64
2023/05/02 10:07:10;;;;;;;11.83;7.07;;;;;;;;;;771635;182;920745;-64
2023/05/02 10:09:36;;;;;;;10.35;6.97;;;;;;;;;;767858;180;925206;-64
2023/05/02 10:12:03;;;;;;;10.87;6.97;;;;;;;;;;762974;182;903796;-64
2023/05/02 10:14:28;;;;;;;9.87;7.57;;;;;;;;;;764957;182;918127;-64
2023/05/02 10:16:59;;;;;;;7.93;6.37;;;;;;;;;;768063;182;916064;-64
2023/05/02 10:19:26;;;;;;;20.63;7.57;;;;;;;;;;762491;182;917428;-68
2023/05/02 10:21:51;;;;;;;8.93;6.70;;;;;;;;;;761306;182;919427;-65
2023/05/02 10:24:17;;;;;;;9.80;6.60;;;;;;;;;;768128;182;914666;-63
2023/05/02 10:26:43;;;;;;;7.57;6.77;;;;;;;;;;763087;182;923604;-64
2023/05/02 10:29:09;;;;;;;9.30;7.63;;;;;;;;;;762707;182;817504;-63
2023/05/02 10:31:36;;;;;;;7.57;6.30;;;;;;;;;;767082;182;917239;-63
2023/05/02 10:34:01;;;;;;;8.20;6.70;;;;;;;;;;765745;182;916003;-64
2023/05/02 10:36:26;;;;;;;10.87;6.77;;;;;;;;;;765899;182;852884;-64
2023/05/02 10:38:52;;;;;;;9.57;7.00;;;;;;;;;;761742;181;816333;-64
2023/05/02 10:41:18;;;;;;;8.10;5.73;;;;;;;;;;768421;182;919274;-64
2023/05/02 10:43:45;;;;;;;7.87;6.50;;;;;;;;;;756877;182;920663;-64
2023/05/02 10:46:16;;;;;;;12.00;4.70;;;;;;;;;;761380;182;939636;-63
2023/05/02 10:48:42;;;;;;;5.97;4.90;;;;;;;;;;764949;182;919047;-64
2023/05/02 10:51:13;;;;;;;11.37;4.50;;;;;;;;;;765781;182;893244;-64
2023/05/02 10:53:35;;;;;;;9.60;6.23;;;;;;;;;;762931;182;913651;-63
2023/05/02 10:56:06;;;;;;;7.83;5.40;;;;;;;;;;762590;182;814970;-64
2023/05/02 10:58:32;;;;;;;20.13;6.37;;;;;;;;;;770590;181;914203;-64
2023/05/02 11:00:58;;;;;;;15.17;6.10;;;;;;;;;;764941;182;914780;-64
2023/05/02 11:03:24;;;;;;;6.47;4.93;;;;;;;;;;766969;181;922288;-64
2023/05/02 11:05:56;;;;;;;6.50;4.60;;;;;;;;;;755177;182;921811;-65
2023/05/02 11:08:36;;;;;;;9.60;4.70;;;;;;;;;;769470;181;816046;-64
2023/05/02 11:11:08;;;;;;;7.60;4.97;;;;;;;;;;762787;181;919417;-64
2023/05/02 11:13:40;;;;;;;10.80;4.87;;;;;;;;;;766514;182;919600;-65
2023/05/02 11:16:06;;;;;;;10.47;5.13;;;;;;;;;;759419;181;929995;-64
2023/05/02 11:18:32;;;;;;;11.20;4.30;;;;;;;;;;755012;181;816096;-64
2023/05/02 11:20:57;;;;;;;8.47;4.53;;;;;;;;;;765735;182;915648;-65
2023/05/02 11:23:24;;;;;;;171.27;18.63;;;;;;;;;;756615;182;923352;-64
2023/05/02 11:25:51;;;;;;;8.93;4.50;;;;;;;;;;765641;182;918559;-64
2023/05/02 11:28:22;;;;;;;10.13;4.87;;;;;;;;;;771370;182;917110;-64
2023/05/02 11:30:49;;;;;;;5.67;4.60;;;;;;;;;;768006;182;918870;-64
2023/05/02 11:33:15;;;;;;;4.77;3.87;;;;;;;;;;761354;182;920058;-64
2023/05/02 11:35:40;;;;;;;6.53;4.50;;;;;;;;;;763861;182;844333;-66
2023/05/02 11:38:06;;;;;;;9.30;4.40;;;;;;;;;;765275;182;913967;-64
2023/05/02 11:40:32;;;;;;;7.73;4.13;;;;;;;;;;758536;182;920224;-64
2023/05/02 11:42:58;;;;;;;7.00;3.57;;;;;;;;;;762555;180;918547;-65
2023/05/02 11:45:29;;;;;;;7.87;4.33;;;;;;;;;;766505;181;918972;-66
2023/05/02 11:47:55;;;;;;;8.70;5.00;;;;;;;;;;762458;182;918687;-64
2023/05/02 11:50:21;;;;;;;6.10;4.57;;;;;;;;;;763326;182;917504;-64
2023/05/02 11:52:47;;;;;;;5.80;4.60;;;;;;;;;;754650;182;920226;-64
2023/05/02 11:55:13;;;;;;;9.57;5.07;;;;;;;;;;765057;182;813389;-64
2023/05/02 11:57:38;;;;;;;6.70;4.90;;;;;;;;;;746699;182;919287;-64
2023/05/02 12:00:05;;;;;;;14.03;5.43;;;;;;;;;;758489;182;1010415;-64
2023/05/02 12:02:38;;;;;;;12.70;5.30;;;;;;;;;;767756;182;910175;-64
2023/05/02 12:05:05;;;;;;;8.37;4.50;;;;;;;;;;760191;182;822917;-64
2023/05/02 12:07:45;;;;;;;9.10;5.50;;;;;;;;;;763695;182;915622;-64
2023/05/02 12:10:10;;;;;;;10.20;5.40;;;;;;;;;;760086;182;912280;-64
2023/05/02 12:12:37;;;;;;;10.80;4.77;;;;;;;;;;759131;182;918749;-64
2023/05/02 12:15:03;;;;;;;10.13;6.10;;;;;;;;;;770101;182;815360;-64
2023/05/02 12:17:29;;;;;;;7.33;5.60;;;;;;;;;;763776;182;906208;-64
2023/05/02 12:19:55;;;;;;;8.33;5.77;;;;;;;;;;764906;179;891571;-64
2023/05/02 12:22:20;;;;;;;6.97;5.30;;;;;;;;;;754447;184;917859;-64
2023/05/02 12:24:48;;;;;;;8.33;5.03;;;;;;;;;;763854;181;915391;-65
2023/05/02 12:27:12;;;;;;;11.33;5.23;;;;;;;;;;764207;181;914645;-64
2023/05/02 12:29:38;;;;;;;7.07;4.60;;;;;;;;;;770598;181;915290;-64
2023/05/02 12:32:04;;;;;;;7.70;5.70;;;;;;;;;;763384;182;919044;-65
2023/05/02 12:34:31;;;;;;;7.00;5.27;;;;;;;;;;761441;182;918412;-65
2023/05/02 12:36:56;;;;;;;6.80;5.43;;;;;;;;;;757031;182;920229;-65
2023/05/02 12:39:37;;;;;;;5.93;4.67;;;;;;;;;;767419;182;921847;-63
2023/05/02 12:42:08;;;;;;;7.03;4.47;;;;;;;;;;763225;182;916248;-63
2023/05/02 12:44:35;;;;;;;5.83;4.97;;;;;;;;;;762990;182;816670;-64
2023/05/02 12:47:00;;;;;;;6.43;4.63;;;;;;;;;;763331;182;915780;-64
2023/05/02 12:49:26;;;;;;;8.27;5.00;;;;;;;;;;767545;182;1063129;-64
2023/05/02 12:51:52;;;;;;;7.00;5.40;;;;;;;;;;759563;181;918947;-64
2023/05/02 12:54:19;;;;;;;7.73;5.30;;;;;;;;;;764106;180;816328;-64
2023/05/02 12:56:45;;;;;;;9.53;5.10;;;;;;;;;;759810;182;819369;-65
2023/05/02 12:59:11;;;;;;;10.00;5.57;;;;;;;;;;752472;184;919057;-65
2023/05/02 13:01:36;;;;;;;11.97;4.87;;;;;;;;;;756744;181;934508;-64
2023/05/02 13:04:03;;;;;;;9.63;6.00;;;;;;;;;;761219;182;918874;-65
2023/05/02 13:06:28;;;;;;;11.80;5.10;;;;;;;;;;765340;182;924288;-63
2023/05/02 13:08:54;;;;;;;8.63;7.07;;;;;;;;;;760447;182;918685;-64
2023/05/02 13:11:20;;;;;;;13.07;5.90;;;;;;;;;;764296;182;912704;-65
2023/05/02 13:13:46;;;;;;;11.10;6.70;;;;;;;;;;767380;182;920432;-65
2023/05/02 13:16:12;;;;;;;10.52;4.40;;;;;;;;;;751123;185;918637;-66
2023/05/02 13:18:38;;;;;;;6.00;3.83;;;;;;;;;;759492;182;852212;-65
2023/05/02 13:21:04;;;;;;;4.67;3.80;;;;;;;;;;758384;181;844402;-64
2023/05/02 13:23:29;;;;;;;3.70;2.63;;;;;;;;;;759927;181;915117;-64
2023/05/02 13:25:55;;;;;;;4.57;3.50;;;;;;;;;;759941;181;918310;-64
2023/05/02 13:28:21;;;;;;;9.73;4.17;;;;;;;;;;759409;182;915245;-62
2023/05/02 13:30:47;;;;;;;6.97;3.33;;;;;;;;;;765645;182;914603;-62
2023/05/02 13:33:13;;;;;;;4.50;3.27;;;;;;;;;;749129;184;919215;-60
2023/05/02 13:35:39;;;;;;;4.40;3.30;;;;;;;;;;760652;182;917265;-62
2023/05/02 13:38:04;;;;;;;7.60;4.90;;;;;;;;;;766670;182;908820;-61
2023/05/02 13:40:30;;;;;;;4.40;3.30;;;;;;;;;;760305;182;920732;-61
2023/05/02 13:42:56;;;;;;;4.20;2.93;;;;;;;;;;759884;180;923035;-61
2023/05/02 13:45:22;;;;;;;4.20;3.33;;;;;;;;;;766785;182;819233;-61
2023/05/02 13:47:48;;;;;;;4.10;3.37;;;;;;;;;;766508;181;803619;-61
2023/05/02 13:50:14;;;;;;;5.17;3.03;;;;;;;;;;759048;180;920289;-61
2023/05/02 13:52:39;;;;;;;4.27;2.70;;;;;;;;;;758521;181;915943;-59
2023/05/02 13:55:06;;;;;;;4.60;2.90;;;;;;;;;;770675;180;812935;-59
2023/05/02 13:57:31;;;;;;;8.80;4.63;;;;;;;;;;762082;182;915008;-61
2023/05/02 13:59:57;;;;;;;6.03;3.10;;;;;;;;;;763291;182;925835;-60
2023/05/02 14:02:23;;;;;;;4.57;3.53;;;;;;;;;;766896;181;920376;-60
2023/05/02 14:04:49;;;;;;;5.33;4.07;;;;;;;;;;764551;181;919554;-61
2023/05/02 14:07:15;;;;;;;9.20;4.37;;;;;;;;;;765431;182;890326;-60
2023/05/02 14:09:41;;;;;;;7.63;5.10;;;;;;;;;;753661;182;916520;-59
2023/05/02 14:12:07;;;;;;;6.07;5.00;;;;;;;;;;752519;181;1021650;-60
2023/05/02 14:14:34;;;;;;;8.30;4.90;;;;;;;;;;762850;182;917497;-60
2023/05/02 14:17:00;;;;;;;9.10;5.47;;;;;;;;;;762655;181;919071;-60
2023/05/02 14:19:24;;;;;;;9.20;5.80;;;;;;;;;;770549;182;630789;-59